createdAt,value
2023-06-13T00:01:10.060Z,4.03
2023-06-13T00:03:38.301Z,3.37
2023-06-13T00:06:06.724Z,3.70
2023-06-13T00:08:34.791Z,3.37
2023-06-13T00:11:03.120Z,4.07
2023-06-13T00:13:31.448Z,4.10
2023-06-13T00:16:01.214Z,3.63
2023-06-13T00:18:31.951Z,3.67
2023-06-13T00:21:01.047Z,3.97
2023-06-13T00:23:29.563Z,4.10
2023-06-13T00:25:57.792Z,3.37
2023-06-13T00:28:26.117Z,4.10
2023-06-13T00:30:54.193Z,3.63
2023-06-13T00:33:28.487Z,3.77
2023-06-13T00:35:56.493Z,3.80
2023-06-13T00:38:24.678Z,3.57
2023-06-13T00:40:53.476Z,3.67
2023-06-13T00:43:21.539Z,3.40
2023-06-13T00:45:49.603Z,3.70
2023-06-13T00:48:18.044Z,3.67
2023-06-13T00:50:49.016Z,3.50
2023-06-13T00:53:19.632Z,4.07
2023-06-13T00:55:49.099Z,3.73
2023-06-13T00:58:18.668Z,3.83
2023-06-13T01:00:47.578Z,4.60
2023-06-13T01:03:17.744Z,3.53
2023-06-13T01:05:49.067Z,4.10
2023-06-13T01:08:20.971Z,3.83
2023-06-13T01:10:55.086Z,4.17
2023-06-13T01:13:31.001Z,3.70
2023-06-13T01:16:05.753Z,4.17
2023-06-13T01:18:38.342Z,4.17
2023-06-13T01:21:09.586Z,4.33
2023-06-13T01:23:44.839Z,3.80
2023-06-13T01:26:15.884Z,4.20
2023-06-13T01:28:53.015Z,3.63
2023-06-13T01:31:24.709Z,3.87
2023-06-13T01:33:53.270Z,4.30
2023-06-13T01:36:22.547Z,4.20
2023-06-13T01:38:50.926Z,4.33
2023-06-13T01:41:19.013Z,4.67
2023-06-13T01:43:48.483Z,5.23
2023-06-13T01:46:27.459Z,4.43
2023-06-13T01:49:06.666Z,4.70
2023-06-13T01:51:46.738Z,4.60
2023-06-13T01:54:19.899Z,5.20
2023-06-13T01:56:52.269Z,4.77
2023-06-13T01:59:26.214Z,4.27
2023-06-13T02:01:56.557Z,4.40
2023-06-13T02:04:24.740Z,5.50
2023-06-13T02:06:52.778Z,4.50
2023-06-13T02:09:20.901Z,5.47
2023-06-13T02:11:48.974Z,5.03
2023-06-13T02:14:17.445Z,5.33
2023-06-13T02:16:46.857Z,5.13
2023-06-13T02:19:14.927Z,5.30
2023-06-13T02:21:46.967Z,4.80
2023-06-13T02:24:16.079Z,5.37
2023-06-13T02:26:45.274Z,5.17
2023-06-13T02:29:13.545Z,5.40
2023-06-13T02:31:42.871Z,4.77
2023-06-13T02:34:13.519Z,4.90
2023-06-13T02:36:41.547Z,4.63
2023-06-13T02:39:09.750Z,4.50
2023-06-13T02:41:37.819Z,5.33
2023-06-13T02:44:06.337Z,4.73
2023-06-13T02:46:34.363Z,5.37
2023-06-13T02:49:02.645Z,5.20
2023-06-13T02:51:32.217Z,5.00
2023-06-13T02:54:00.244Z,5.47
2023-06-13T02:56:29.960Z,5.27
2023-06-13T02:58:58.118Z,5.37
2023-06-13T03:01:27.849Z,5.10
2023-06-13T03:03:56.144Z,5.20
2023-06-13T03:06:27.246Z,5.50
2023-06-13T03:08:59.444Z,5.10
2023-06-13T03:11:27.558Z,4.77
2023-06-13T03:13:55.595Z,5.90
2023-06-13T03:16:23.868Z,5.23
2023-06-13T03:18:51.946Z,5.30
2023-06-13T03:21:19.971Z,5.40
2023-06-13T03:23:48.109Z,4.97
2023-06-13T03:26:20.886Z,4.87
2023-06-13T03:28:49.025Z,5.33
2023-06-13T03:31:17.293Z,5.27
2023-06-13T03:33:45.431Z,4.50
2023-06-13T03:36:13.641Z,5.27
2023-06-13T03:38:42.215Z,5.33
2023-06-13T03:41:10.264Z,5.00
2023-06-13T03:43:39.682Z,5.60
2023-06-13T03:46:08.115Z,5.13
2023-06-13T03:48:36.369Z,5.37
2023-06-13T03:51:04.554Z,5.30
2023-06-13T03:53:32.575Z,5.27
2023-06-13T03:56:01.881Z,5.77
2023-06-13T03:58:30.379Z,5.93
2023-06-13T04:00:59.882Z,5.67
2023-06-13T04:03:30.771Z,5.20
2023-06-13T04:05:59.197Z,5.53
2023-06-13T04:08:27.712Z,5.30
2023-06-13T04:10:55.780Z,5.43
2023-06-13T04:13:24.232Z,5.27
2023-06-13T04:15:52.875Z,5.27
2023-06-13T04:18:23.049Z,5.40
2023-06-13T04:20:52.572Z,5.63
2023-06-13T04:23:20.771Z,5.67
2023-06-13T04:25:48.986Z,5.40
2023-06-13T04:28:17.056Z,5.80
2023-06-13T04:30:47.973Z,5.40
2023-06-13T04:33:18.520Z,5.23
2023-06-13T04:35:49.532Z,5.70
2023-06-13T04:38:21.266Z,5.73
2023-06-13T04:40:49.518Z,5.77
2023-06-13T04:43:17.617Z,5.93
2023-06-13T04:45:46.160Z,5.87
2023-06-13T04:48:14.320Z,5.43
2023-06-13T04:50:42.453Z,5.27
2023-06-13T04:53:13.405Z,5.40
2023-06-13T04:55:41.449Z,5.50
2023-06-13T04:58:09.797Z,5.10
2023-06-13T05:00:37.849Z,5.97
2023-06-13T05:03:07.948Z,5.93
2023-06-13T05:05:36.052Z,6.23
2023-06-13T05:08:04.252Z,5.87
2023-06-13T05:10:34.879Z,7.90
2023-06-13T05:13:03.029Z,6.20
2023-06-13T05:15:32.072Z,6.10
2023-06-13T05:18:01.243Z,6.80
2023-06-13T05:20:29.716Z,6.37
2023-06-13T05:22:58.005Z,6.77
2023-06-13T05:25:28.209Z,7.10
2023-06-13T05:27:57.968Z,6.87
2023-06-13T05:30:26.148Z,6.50
2023-06-13T05:32:54.445Z,7.07
2023-06-13T05:35:23.033Z,6.80
2023-06-13T05:37:51.939Z,7.20
2023-06-13T05:40:20.223Z,6.80
2023-06-13T05:42:48.385Z,6.70
2023-06-13T05:45:17.861Z,7.60
2023-06-13T05:47:45.979Z,6.60
2023-06-13T05:50:14.756Z,6.47
2023-06-13T05:52:43.054Z,6.67
2023-06-13T05:55:14.996Z,6.53
2023-06-13T05:57:46.835Z,6.40
2023-06-13T06:00:18.629Z,6.30
2023-06-13T06:02:48.419Z,6.97
2023-06-13T06:05:17.415Z,6.75
2023-06-13T06:07:46.454Z,6.77
2023-06-13T06:10:15.813Z,7.65
2023-06-13T06:12:44.362Z,7.00
2023-06-13T06:15:13.132Z,6.82
2023-06-13T06:17:42.691Z,7.90
2023-06-13T06:20:12.618Z,7.78
2023-06-13T06:22:41.305Z,7.95
2023-06-13T06:25:16.173Z,7.50
2023-06-13T06:27:46.094Z,7.90
2023-06-13T06:30:14.952Z,7.18
2023-06-13T06:32:45.157Z,7.55
2023-06-13T06:35:14.838Z,7.35
2023-06-13T06:37:44.230Z,6.88
2023-06-13T06:40:13.107Z,7.72
2023-06-13T06:42:41.405Z,7.15
2023-06-13T06:45:11.983Z,7.28
2023-06-13T06:47:40.159Z,6.28
2023-06-13T06:50:10.722Z,7.00
2023-06-13T06:52:38.883Z,6.07
2023-06-13T06:55:07.175Z,6.80
2023-06-13T06:57:35.246Z,6.53
2023-06-13T07:00:04.062Z,5.63
2023-06-13T07:02:32.169Z,5.72
2023-06-13T07:05:00.280Z,6.00
2023-06-13T07:07:29.788Z,6.13
2023-06-13T07:09:57.925Z,5.70
2023-06-13T07:12:26.034Z,5.30
2023-06-13T07:14:54.112Z,6.00
2023-06-13T07:17:22.191Z,5.80
2023-06-13T07:19:50.267Z,5.35
2023-06-13T07:22:18.364Z,5.80
2023-06-13T07:24:47.932Z,5.60
2023-06-13T07:27:16.835Z,5.70
2023-06-13T07:29:44.958Z,6.00
2023-06-13T07:32:13.991Z,6.38
2023-06-13T07:35:03.517Z,5.95
2023-06-13T07:37:30.201Z,6.50
2023-06-13T07:39:59.676Z,5.90
2023-06-13T07:42:27.754Z,6.82
2023-06-13T07:44:55.980Z,6.45
2023-06-13T07:47:24.112Z,5.78
2023-06-13T07:49:52.176Z,6.30
2023-06-13T07:52:20.263Z,6.07
2023-06-13T07:54:48.390Z,7.15
2023-06-13T07:57:33.697Z,6.03
2023-06-13T08:00:10.932Z,6.20
2023-06-13T08:02:39.197Z,6.50
2023-06-13T08:05:08.310Z,6.25
2023-06-13T08:07:37.441Z,6.10
2023-06-13T08:10:06.114Z,6.20
2023-06-13T08:12:35.680Z,5.75
2023-06-13T08:15:04.460Z,5.35
2023-06-13T08:17:32.605Z,5.72
2023-06-13T08:20:00.698Z,5.20
2023-06-13T08:22:29.245Z,5.75
2023-06-13T08:24:57.721Z,4.97
2023-06-13T08:27:25.782Z,5.20
2023-06-13T08:29:55.216Z,5.20
2023-06-13T08:32:23.342Z,4.97
2023-06-13T08:34:51.459Z,5.00
2023-06-13T08:37:19.505Z,5.45
2023-06-13T08:39:47.641Z,5.22
2023-06-13T08:42:15.970Z,4.70
2023-06-13T08:44:44.266Z,4.90
2023-06-13T08:47:31.480Z,4.82
2023-06-13T08:50:02.990Z,4.53
2023-06-13T08:52:37.052Z,5.10
2023-06-13T08:55:27.319Z,4.72
2023-06-13T08:57:56.960Z,5.03
2023-06-13T09:00:25.341Z,4.88
2023-06-13T09:02:57.321Z,4.72
2023-06-13T09:05:26.451Z,4.70
2023-06-13T09:08:05.314Z,4.38
2023-06-13T09:10:42.081Z,5.13
2023-06-13T09:13:13.448Z,5.43
2023-06-13T09:15:44.309Z,4.50
2023-06-13T09:18:14.294Z,4.90
2023-06-13T09:20:42.461Z,4.53
2023-06-13T09:23:12.079Z,4.60
2023-06-13T09:25:41.150Z,4.40
2023-06-13T09:28:31.951Z,4.80
2023-06-13T09:31:00.613Z,3.80
2023-06-13T09:33:30.356Z,4.40
2023-06-13T09:36:00.644Z,3.85
2023-06-13T09:38:31.110Z,4.55
2023-06-13T09:40:59.400Z,4.18
2023-06-13T09:43:28.749Z,3.30
2023-06-13T09:45:57.526Z,2.90
2023-06-13T09:48:26.302Z,2.63
2023-06-13T09:50:56.275Z,2.60
2023-06-13T09:53:24.369Z,2.42
2023-06-13T09:55:52.438Z,2.38
2023-06-13T10:00:58.205Z,2.45
2023-06-13T10:03:27.220Z,2.70
2023-06-13T10:05:57.665Z,2.67
2023-06-13T10:08:26.706Z,2.60
2023-06-13T10:10:55.268Z,2.55
2023-06-13T10:13:27.919Z,2.65
2023-06-13T10:16:00.132Z,2.35
2023-06-13T10:18:33.755Z,2.20
2023-06-13T10:21:04.670Z,2.40
2023-06-13T10:23:38.689Z,2.17
2023-06-13T10:26:10.667Z,3.47
2023-06-13T10:28:57.276Z,2.20
2023-06-13T10:31:36.316Z,2.72
2023-06-13T10:34:27.962Z,2.30
2023-06-13T10:37:27.176Z,2.47
2023-06-13T10:40:17.935Z,2.55
2023-06-13T10:42:49.825Z,3.05
2023-06-13T10:45:22.981Z,3.20
2023-06-13T10:47:52.136Z,2.80
2023-06-13T10:50:22.518Z,3.25
2023-06-13T10:52:56.436Z,3.20
2023-06-13T10:55:26.797Z,2.88
2023-06-13T10:57:57.724Z,2.90
2023-06-13T11:00:28.354Z,2.65
2023-06-13T11:03:01.694Z,2.80
2023-06-13T11:05:41.761Z,2.95
2023-06-13T11:08:16.922Z,2.83
2023-06-13T11:10:47.060Z,2.88
2023-06-13T11:13:20.328Z,3.00
2023-06-13T11:15:50.049Z,2.80
2023-06-13T11:18:36.151Z,2.65
2023-06-13T11:21:05.072Z,2.60
2023-06-13T11:23:49.230Z,2.53
2023-06-13T11:26:21.744Z,2.60
2023-06-13T11:28:51.756Z,3.13
2023-06-13T11:31:20.378Z,2.63
2023-06-13T11:33:50.203Z,2.80
2023-06-13T11:36:19.570Z,2.72
2023-06-13T11:38:58.951Z,2.42
2023-06-13T11:41:27.154Z,2.50
2023-06-13T11:43:57.245Z,2.25
2023-06-13T11:46:25.870Z,2.63
2023-06-13T11:48:57.120Z,2.55
2023-06-13T11:51:25.959Z,2.08
2023-06-13T11:53:57.983Z,2.15
2023-06-13T11:56:27.281Z,2.22
2023-06-13T11:58:57.958Z,1.98
2023-06-13T12:01:28.928Z,2.40
2023-06-13T12:04:00.041Z,2.40
2023-06-13T12:06:28.804Z,2.30
2023-06-13T12:08:58.927Z,2.53
2023-06-13T12:11:30.477Z,2.15
2023-06-13T12:13:59.935Z,2.13
2023-06-13T12:16:30.863Z,2.28
2023-06-13T12:19:00.382Z,2.08
2023-06-13T12:21:30.569Z,2.30
2023-06-13T12:24:02.241Z,2.15
2023-06-13T12:26:32.304Z,2.50
2023-06-13T12:29:03.269Z,2.25
2023-06-13T12:31:34.944Z,2.33
2023-06-13T12:34:11.037Z,2.13
2023-06-13T12:36:42.377Z,1.90
2023-06-13T12:39:15.488Z,2.10
2023-06-13T12:41:48.283Z,2.20
2023-06-13T12:44:17.330Z,2.22
2023-06-13T12:46:47.761Z,1.95
2023-06-13T12:49:20.177Z,1.88
2023-06-13T12:51:51.133Z,2.30
2023-06-13T12:54:21.907Z,2.00
2023-06-13T12:56:55.007Z,1.80
2023-06-13T12:59:31.850Z,1.90
2023-06-13T13:02:00.391Z,2.15
2023-06-13T13:04:32.611Z,2.35
2023-06-13T13:07:01.790Z,2.17
2023-06-13T13:09:32.686Z,2.20
2023-06-13T13:12:01.774Z,1.95
2023-06-13T13:14:31.378Z,2.00
2023-06-13T13:16:59.430Z,2.45
2023-06-13T13:19:27.780Z,2.00
2023-06-13T13:21:56.750Z,2.05
2023-06-13T13:24:25.062Z,2.17
2023-06-13T13:26:56.523Z,2.30
2023-06-13T13:29:26.148Z,1.88
2023-06-13T13:31:54.356Z,2.10
2023-06-13T13:34:23.711Z,1.83
2023-06-13T13:36:54.020Z,1.83
2023-06-13T13:39:22.505Z,1.85
2023-06-13T13:41:50.766Z,1.75
2023-06-13T13:44:20.292Z,2.38
2023-06-13T13:46:48.814Z,1.90
2023-06-13T13:49:16.976Z,1.98
2023-06-13T13:51:48.373Z,1.90
2023-06-13T13:54:16.473Z,1.92
2023-06-13T13:56:45.901Z,2.00
2023-06-13T13:59:14.019Z,2.08
2023-06-13T14:01:43.523Z,1.75
2023-06-13T14:04:14.730Z,1.75
2023-06-13T14:06:43.246Z,1.60
2023-06-13T14:09:14.141Z,1.70
2023-06-13T14:11:42.208Z,1.67
2023-06-13T14:14:10.850Z,2.25
2023-06-13T14:16:39.220Z,1.55
2023-06-13T14:19:08.821Z,1.65
2023-06-13T14:21:36.865Z,2.00
2023-06-13T14:24:05.379Z,1.95
2023-06-13T14:26:33.470Z,1.98
2023-06-13T14:29:01.561Z,1.63
2023-06-13T14:31:29.868Z,2.25
2023-06-13T14:33:58.256Z,1.98
2023-06-13T14:36:27.704Z,1.50
2023-06-13T14:38:55.808Z,2.17
2023-06-13T14:41:23.856Z,1.50
2023-06-13T14:43:52.009Z,1.67
2023-06-13T14:46:20.146Z,1.65
2023-06-13T14:48:48.285Z,1.67
2023-06-13T14:51:16.417Z,1.52
2023-06-13T14:53:45.867Z,1.90
2023-06-13T14:56:14.035Z,1.75
2023-06-13T14:58:42.106Z,1.80
2023-06-13T15:01:10.406Z,1.58
2023-06-13T15:03:41.516Z,1.80
2023-06-13T15:06:10.105Z,1.90
2023-06-13T15:08:40.340Z,1.92
2023-06-13T15:11:10.890Z,1.80
2023-06-13T15:13:38.954Z,1.88
2023-06-13T15:16:08.019Z,1.75
2023-06-13T15:18:37.936Z,2.10
2023-06-13T15:21:06.547Z,1.70
2023-06-13T15:23:34.652Z,1.98
2023-06-13T15:26:02.944Z,1.90
2023-06-13T15:28:32.863Z,1.52
2023-06-13T15:31:01.038Z,1.73
2023-06-13T15:33:33.633Z,1.65
2023-06-13T15:36:04.327Z,2.08
2023-06-13T15:38:33.061Z,1.60
2023-06-13T15:41:01.704Z,1.70
2023-06-13T15:43:29.837Z,1.90
2023-06-13T15:45:59.258Z,1.65
2023-06-13T15:48:28.822Z,1.55
2023-06-13T15:50:56.951Z,1.67
2023-06-13T15:53:25.001Z,1.55
2023-06-13T15:55:53.641Z,1.60
2023-06-13T15:58:21.688Z,2.00
2023-06-13T16:00:49.954Z,1.77
2023-06-13T16:03:19.761Z,1.48
2023-06-13T16:05:48.216Z,1.70
2023-06-13T16:08:16.339Z,1.60
2023-06-13T16:10:44.575Z,1.65
2023-06-13T16:13:12.680Z,2.13
2023-06-13T16:15:40.753Z,1.80
2023-06-13T16:18:08.917Z,2.85
2023-06-13T16:20:38.427Z,2.90
2023-06-13T16:23:06.471Z,3.03
2023-06-13T16:25:34.690Z,2.90
2023-06-13T16:28:02.822Z,2.00
2023-06-13T16:30:30.952Z,1.83
2023-06-13T16:32:59.121Z,1.83
2023-06-13T16:35:27.310Z,1.55
2023-06-13T16:37:56.774Z,1.65
2023-06-13T16:40:24.827Z,1.70
2023-06-13T16:42:53.670Z,1.73
2023-06-13T16:45:21.814Z,2.08
2023-06-13T16:47:50.524Z,1.65
2023-06-13T16:50:18.900Z,1.95
2023-06-13T16:52:47.499Z,2.00
2023-06-13T16:55:17.508Z,2.00
2023-06-13T16:57:46.328Z,1.90
2023-06-13T17:00:14.863Z,1.70
2023-06-13T17:02:42.980Z,1.45
2023-06-13T17:05:11.655Z,1.55
2023-06-13T17:07:40.764Z,1.30
2023-06-13T17:10:09.677Z,1.40
2023-06-13T17:12:42.840Z,1.50
2023-06-13T17:15:12.147Z,1.30
2023-06-13T17:17:40.472Z,1.33
2023-06-13T17:20:09.692Z,1.40
2023-06-13T17:22:38.324Z,1.30
2023-06-13T17:25:07.240Z,1.30
2023-06-13T17:27:35.301Z,1.55
2023-06-13T17:30:05.285Z,1.50
2023-06-13T17:32:33.368Z,1.50
2023-06-13T17:35:01.437Z,1.50
2023-06-13T17:37:29.535Z,1.50
2023-06-13T17:39:57.589Z,1.17
2023-06-13T17:42:25.660Z,1.10
2023-06-13T17:44:53.740Z,1.20
2023-06-13T17:47:23.210Z,1.98
2023-06-13T17:49:51.329Z,2.30
2023-06-13T17:52:19.385Z,1.92
2023-06-13T17:54:47.475Z,1.52
2023-06-13T17:57:15.639Z,1.13
2023-06-13T17:59:43.722Z,1.25
2023-06-13T18:02:13.122Z,1.10
2023-06-13T18:04:42.593Z,1.30
2023-06-13T18:07:10.738Z,1.00
2023-06-13T18:09:39.162Z,1.30
2023-06-13T18:12:20.835Z,0.82
2023-06-13T18:14:50.760Z,0.98
2023-06-13T18:17:18.982Z,0.82
2023-06-13T18:19:48.660Z,1.00
2023-06-13T18:22:16.824Z,1.00
2023-06-13T18:24:45.169Z,0.90
2023-06-13T18:27:13.878Z,0.88
2023-06-13T18:29:43.732Z,0.70
2023-06-13T18:32:13.181Z,0.95
2023-06-13T18:34:41.821Z,0.82
2023-06-13T18:37:11.389Z,0.90
2023-06-13T18:39:39.569Z,0.82
2023-06-13T18:42:08.741Z,0.90
2023-06-13T18:44:37.577Z,0.95
2023-06-13T18:47:06.354Z,1.17
2023-06-13T18:49:37.139Z,0.85
2023-06-13T18:52:07.603Z,0.90
2023-06-13T18:54:38.119Z,0.73
2023-06-13T18:57:09.034Z,0.80
2023-06-13T18:59:37.992Z,1.05
2023-06-13T19:02:07.984Z,0.80
2023-06-13T19:04:38.665Z,0.88
2023-06-13T19:07:08.118Z,1.05
2023-06-13T19:09:38.349Z,0.90
2023-06-13T19:12:08.381Z,1.10
2023-06-13T19:14:36.783Z,0.90
2023-06-13T19:17:05.779Z,0.90
2023-06-13T19:19:34.609Z,1.08
2023-06-13T19:22:03.146Z,0.90
2023-06-13T19:24:32.381Z,0.80
2023-06-13T19:27:02.269Z,0.90
2023-06-13T19:29:31.675Z,0.95
2023-06-13T19:32:00.271Z,1.10
2023-06-13T19:34:28.606Z,1.10
2023-06-13T19:36:57.057Z,1.00
2023-06-13T19:39:25.608Z,1.08
2023-06-13T19:41:54.053Z,1.23
2023-06-13T19:44:24.023Z,1.02
2023-06-13T19:46:52.391Z,1.10
2023-06-13T19:49:20.928Z,1.27
2023-06-13T19:51:49.408Z,1.17
2023-06-13T19:54:17.838Z,1.33
2023-06-13T19:56:46.657Z,1.17
2023-06-13T19:59:15.714Z,0.90
2023-06-13T20:01:47.652Z,1.02
2023-06-13T20:04:16.124Z,1.30
2023-06-13T20:06:44.703Z,1.20
2023-06-13T20:09:13.484Z,1.10
2023-06-13T20:11:41.701Z,1.10
2023-06-13T20:14:11.197Z,1.00
2023-06-13T20:16:40.041Z,1.50
2023-06-13T20:19:09.853Z,1.50
2023-06-13T20:21:38.436Z,1.10
2023-06-13T20:24:07.816Z,1.20
2023-06-13T20:26:37.443Z,1.40
2023-06-13T20:29:05.650Z,1.83
2023-06-13T20:31:34.024Z,1.23
2023-06-13T20:34:02.157Z,1.08
2023-06-13T20:36:31.743Z,1.33
2023-06-13T20:38:59.825Z,1.48
2023-06-13T20:41:27.900Z,1.10
2023-06-13T20:43:56.000Z,1.42
2023-06-13T20:46:26.272Z,1.17
2023-06-13T20:48:57.080Z,1.40
2023-06-13T20:51:26.944Z,1.25
2023-06-13T20:53:56.660Z,1.23
2023-06-13T20:56:25.109Z,1.35
2023-06-13T20:58:57.763Z,1.13
2023-06-13T21:01:27.811Z,1.23
2023-06-13T21:03:56.128Z,1.40
2023-06-13T21:06:25.863Z,1.17
2023-06-13T21:08:54.099Z,1.30
2023-06-13T21:11:23.574Z,1.27
2023-06-13T21:13:51.881Z,1.20
2023-06-13T21:16:21.157Z,1.08
2023-06-13T21:18:50.250Z,1.20
2023-06-13T21:21:18.368Z,1.10
2023-06-13T21:23:46.727Z,1.25
2023-06-13T21:26:14.802Z,1.13
2023-06-13T21:28:44.211Z,1.23
2023-06-13T21:31:15.227Z,1.33
2023-06-13T21:33:43.370Z,0.90
2023-06-13T21:36:11.416Z,1.20
2023-06-13T21:38:39.443Z,1.50
2023-06-13T21:41:07.881Z,1.10
2023-06-13T21:43:35.960Z,1.20
2023-06-13T21:46:05.993Z,1.50
2023-06-13T21:48:34.091Z,1.15
2023-06-13T21:51:02.475Z,1.13
2023-06-13T21:53:30.645Z,1.30
2023-06-13T21:55:58.841Z,1.43
2023-06-13T21:58:26.904Z,1.20
2023-06-13T22:00:56.423Z,1.20
2023-06-13T22:03:25.969Z,0.97
2023-06-13T22:05:57.438Z,1.13
2023-06-13T22:08:25.826Z,1.30
2023-06-13T22:10:54.268Z,1.27
2023-06-13T22:13:22.336Z,1.03
2023-06-13T22:15:54.001Z,1.10
2023-06-13T22:18:22.734Z,1.10
2023-06-13T22:20:52.245Z,1.40
2023-06-13T22:23:20.317Z,1.40
2023-06-13T22:25:48.477Z,1.40
2023-06-13T22:28:22.441Z,1.33
2023-06-13T22:30:56.409Z,1.40
2023-06-13T22:33:24.503Z,1.47
2023-06-13T22:35:54.496Z,1.20
2023-06-13T22:38:22.556Z,1.20
2023-06-13T22:40:51.096Z,1.20
2023-06-13T22:43:19.174Z,1.50
2023-06-13T22:45:47.313Z,1.30
2023-06-13T22:48:19.181Z,1.40
2023-06-13T22:50:47.449Z,1.23
2023-06-13T22:53:16.858Z,1.40
2023-06-13T22:55:44.933Z,1.40
2023-06-13T22:58:12.981Z,1.20
2023-06-13T23:00:41.084Z,1.10
2023-06-13T23:03:09.414Z,1.23
2023-06-13T23:05:37.727Z,1.07
2023-06-13T23:08:07.246Z,1.43
2023-06-13T23:10:36.692Z,1.10
2023-06-13T23:13:05.028Z,1.10
2023-06-13T23:15:33.476Z,1.47
2023-06-13T23:18:01.588Z,1.10
2023-06-13T23:20:31.225Z,1.30
2023-06-13T23:23:00.214Z,1.17
2023-06-13T23:25:28.631Z,1.30
2023-06-13T23:28:02.174Z,1.70
2023-06-13T23:30:31.785Z,1.30
2023-06-13T23:33:01.623Z,1.43
2023-06-13T23:35:30.325Z,1.50
2023-06-13T23:37:59.083Z,1.40
2023-06-13T23:40:27.704Z,1.43
2023-06-13T23:42:57.278Z,1.33
2023-06-13T23:45:25.361Z,1.40
2023-06-13T23:47:53.422Z,1.37
2023-06-13T23:50:21.452Z,1.23
2023-06-13T23:52:49.471Z,1.33
2023-06-13T23:55:17.504Z,1.60
2023-06-13T23:57:45.528Z,1.47
